KSSI

McKinnon St Simons Island Airport

Brunswick, Georgia, USA
METAR KSSI 110153Z AUTO 29005KT 10SM OVC039 07/03 A3015 RMK AO2 SLP212 T00670028 PNO
Observed Flight Rules
Dec-11 @ 01:53 UTC (40 minutes ago) Visual Flight Rules
Wind Visibility Clouds
290° at 5 knots 10 miles
  • Overcast at 3,900' AGL
Temperatures Readings
Current 7°C / 45°F
Dewpoint 3°C / 37°F
Humidity 76%
Altimeter 30.15" Hg
Pressure 1021.2 hPa
Elevation 6
METAR KSSI 110153Z AUTO 29005KT 10SM OVC039 07/03 A3015 RMK AO2 SLP212 T00670028 PNO
Observed Flight Rules
Dec-11 @ 01:53 UTC
(40 minutes ago)
VFR
Wind Visibility
290° at 5 knots 10 miles
Clouds
  • Overcast at 3,900' AGL
Temperature Dewpoint
7°C / 45°F 3°C / 37°F
Humidity Altimeter Pressure
76% 30.15" Hg 1021.2 hPa